sensor_id;sensor_type;location;lat;lon;timestamp;temperature;humidity
22364;DHT22;11349;53.412;-1.328;2024-03-23T00:54:10;6.10;99.90
22364;DHT22;11349;53.412;-1.328;2024-03-23T00:56:36;6.30;99.90
22364;DHT22;11349;53.412;-1.328;2024-03-23T00:59:01;6.50;9.00
22364;DHT22;11349;53.412;-1.328;2024-03-23T01:01:27;6.40;99.90
22364;DHT22;11349;53.412;-1.328;2024-03-23T01:03:53;6.20;99.90
22364;DHT22;11349;53.412;-1.328;2024-03-23T01:06:18;6.20;99.90
22364;DHT22;11349;53.412;-1.328;2024-03-23T01:08:44;6.10;1.00
22364;DHT22;11349;53.412;-1.328;2024-03-23T01:11:12;6.10;99.90
22364;DHT22;11349;53.412;-1.328;2024-03-23T01:13:37;6.10;99.90
22364;DHT22;11349;53.412;-1.328;2024-03-23T01:16:03;6.20;99.90
22364;DHT22;11349;53.412;-1.328;2024-03-23T01:18:29;6.10;99.90
22364;DHT22;11349;53.412;-1.328;2024-03-23T01:20:55;6.20;99.90
22364;DHT22;11349;53.412;-1.328;2024-03-23T01:23:20;6.10;1.00
22364;DHT22;11349;53.412;-1.328;2024-03-23T01:25:53;6.20;1.00
22364;DHT22;11349;53.412;-1.328;2024-03-23T01:28:19;6.20;93.10
22364;DHT22;11349;53.412;-1.328;2024-03-23T01:30:45;6.20;99.90
22364;DHT22;11349;53.412;-1.328;2024-03-23T01:33:11;6.20;99.90
22364;DHT22;11349;53.412;-1.328;2024-03-23T01:35:36;6.20;99.90
22364;DHT22;11349;53.412;-1.328;2024-03-23T01:38:02;6.30;99.90
22364;DHT22;11349;53.412;-1.328;2024-03-23T01:40:28;6.40;99.90
22364;DHT22;11349;53.412;-1.328;2024-03-23T01:43:05;6.60;1.00
22364;DHT22;11349;53.412;-1.328;2024-03-23T01:45:31;6.50;1.00
22364;DHT22;11349;53.412;-1.328;2024-03-23T01:47:58;6.50;1.00
22364;DHT22;11349;53.412;-1.328;2024-03-23T01:50:24;6.40;67.50
22364;DHT22;11349;53.412;-1.328;2024-03-23T01:52:51;6.40;1.00
22364;DHT22;11349;53.412;-1.328;2024-03-23T01:55:16;6.20;99.90
22364;DHT22;11349;53.412;-1.328;2024-03-23T01:57:42;6.20;99.90
22364;DHT22;11349;53.412;-1.328;2024-03-23T02:00:08;6.20;99.90
22364;DHT22;11349;53.412;-1.328;2024-03-23T02:02:44;6.20;99.90
22364;DHT22;11349;53.412;-1.328;2024-03-23T02:05:13;6.10;99.90
22364;DHT22;11349;53.412;-1.328;2024-03-23T02:07:40;6.30;50.50
22364;DHT22;11349;53.412;-1.328;2024-03-23T02:10:10;6.40;1.00
22364;DHT22;11349;53.412;-1.328;2024-03-23T02:12:36;6.20;1.00
22364;DHT22;11349;53.412;-1.328;2024-03-23T02:15:02;6.80;99.90
22364;DHT22;11349;53.412;-1.328;2024-03-23T02:17:30;6.90;1.00
22364;DHT22;11349;53.412;-1.328;2024-03-23T02:19:56;6.50;99.90
22364;DHT22;11349;53.412;-1.328;2024-03-23T02:22:21;6.30;1.00
22364;DHT22;11349;53.412;-1.328;2024-03-23T02:24:47;6.30;86.10
22364;DHT22;11349;53.412;-1.328;2024-03-23T02:27:13;6.30;1.00
22364;DHT22;11349;53.412;-1.328;2024-03-23T02:29:39;6.40;1.00
22364;DHT22;11349;53.412;-1.328;2024-03-23T02:32:05;6.20;1.00
22364;DHT22;11349;53.412;-1.328;2024-03-23T02:34:30;6.40;1.00
22364;DHT22;11349;53.412;-1.328;2024-03-23T02:36:56;6.30;1.00
22364;DHT22;11349;53.412;-1.328;2024-03-23T02:39:23;6.30;99.90
22364;DHT22;11349;53.412;-1.328;2024-03-23T02:41:49;6.70;1.00
22364;DHT22;11349;53.412;-1.328;2024-03-23T02:44:14;6.50;97.30
22364;DHT22;11349;53.412;-1.328;2024-03-23T02:46:40;6.20;1.00
22364;DHT22;11349;53.412;-1.328;2024-03-23T02:49:06;6.20;1.00
22364;DHT22;11349;53.412;-1.328;2024-03-23T02:51:32;6.40;99.90
22364;DHT22;11349;53.412;-1.328;2024-03-23T02:53:57;6.30;99.90
22364;DHT22;11349;53.412;-1.328;2024-03-23T02:56:23;6.60;99.90
22364;DHT22;11349;53.412;-1.328;2024-03-23T02:58:49;6.40;99.90
22364;DHT22;11349;53.412;-1.328;2024-03-23T03:01:15;6.30;13.50
22364;DHT22;11349;53.412;-1.328;2024-03-23T03:03:40;6.00;1.00
22364;DHT22;11349;53.412;-1.328;2024-03-23T03:06:06;5.90;50.90
22364;DHT22;11349;53.412;-1.328;2024-03-23T03:08:32;5.80;99.90
22364;DHT22;11349;53.412;-1.328;2024-03-23T03:10:58;5.70;99.90
22364;DHT22;11349;53.412;-1.328;2024-03-23T03:13:24;5.80;99.90
22364;DHT22;11349;53.412;-1.328;2024-03-23T03:15:49;5.70;99.90
22364;DHT22;11349;53.412;-1.328;2024-03-23T03:18:15;5.90;99.90
22364;DHT22;11349;53.412;-1.328;2024-03-23T03:20:41;5.80;58.70
22364;DHT22;11349;53.412;-1.328;2024-03-23T03:23:07;5.90;42.20
22364;DHT22;11349;53.412;-1.328;2024-03-23T03:25:33;5.90;1.00
22364;DHT22;11349;53.412;-1.328;2024-03-23T03:27:59;6.00;1.00
22364;DHT22;11349;53.412;-1.328;2024-03-23T03:30:25;5.80;1.00
22364;DHT22;11349;53.412;-1.328;2024-03-23T03:32:53;5.90;1.00
22364;DHT22;11349;53.412;-1.328;2024-03-23T03:35:19;5.90;1.00
22364;DHT22;11349;53.412;-1.328;2024-03-23T03:37:45;5.80;99.90
22364;DHT22;11349;53.412;-1.328;2024-03-23T03:40:11;5.80;99.90
22364;DHT22;11349;53.412;-1.328;2024-03-23T03:42:37;6.10;99.90
22364;DHT22;11349;53.412;-1.328;2024-03-23T03:45:03;6.30;1.00
22364;DHT22;11349;53.412;-1.328;2024-03-23T03:47:30;6.10;1.00
22364;DHT22;11349;53.412;-1.328;2024-03-23T03:49:56;6.20;99.90
22364;DHT22;11349;53.412;-1.328;2024-03-23T03:52:21;6.50;99.90
22364;DHT22;11349;53.412;-1.328;2024-03-23T03:54:47;6.70;1.00
22364;DHT22;11349;53.412;-1.328;2024-03-23T03:57:13;6.40;99.90
22364;DHT22;11349;53.412;-1.328;2024-03-23T03:59:39;6.30;99.90
22364;DHT22;11349;53.412;-1.328;2024-03-23T04:02:04;6.20;1.00
22364;DHT22;11349;53.412;-1.328;2024-03-23T04:04:30;6.60;1.00
22364;DHT22;11349;53.412;-1.328;2024-03-23T04:07:00;6.60;1.00
22364;DHT22;11349;53.412;-1.328;2024-03-23T04:09:26;6.40;99.90
22364;DHT22;11349;53.412;-1.328;2024-03-23T04:11:51;6.20;99.90
22364;DHT22;11349;53.412;-1.328;2024-03-23T04:14:17;6.30;99.90
22364;DHT22;11349;53.412;-1.328;2024-03-23T04:16:43;6.10;99.90
22364;DHT22;11349;53.412;-1.328;2024-03-23T04:19:08;6.10;99.90
22364;DHT22;11349;53.412;-1.328;2024-03-23T04:21:35;6.20;97.70
22364;DHT22;11349;53.412;-1.328;2024-03-23T04:24:01;6.40;1.00
22364;DHT22;11349;53.412;-1.328;2024-03-23T04:26:26;6.50;1.00
22364;DHT22;11349;53.412;-1.328;2024-03-23T04:28:53;6.50;32.40
22364;DHT22;11349;53.412;-1.328;2024-03-23T04:31:18;6.50;99.90
22364;DHT22;11349;53.412;-1.328;2024-03-23T04:33:44;6.90;1.00
22364;DHT22;11349;53.412;-1.328;2024-03-23T04:36:10;6.50;1.00
22364;DHT22;11349;53.412;-1.328;2024-03-23T04:38:36;6.10;99.90
22364;DHT22;11349;53.412;-1.328;2024-03-23T04:41:01;6.00;1.00
22364;DHT22;11349;53.412;-1.328;2024-03-23T04:43:27;5.70;1.00
22364;DHT22;11349;53.412;-1.328;2024-03-23T04:45:53;5.60;99.90
22364;DHT22;11349;53.412;-1.328;2024-03-23T04:48:21;5.60;99.90
22364;DHT22;11349;53.412;-1.328;2024-03-23T04:50:48;5.60;1.00
22364;DHT22;11349;53.412;-1.328;2024-03-23T04:53:14;5.50;14.00
22364;DHT22;11349;53.412;-1.328;2024-03-23T04:55:42;5.40;99.90
22364;DHT22;11349;53.412;-1.328;2024-03-23T04:58:07;5.30;99.90
22364;DHT22;11349;53.412;-1.328;2024-03-23T05:00:33;5.30;99.90
22364;DHT22;11349;53.412;-1.328;2024-03-23T05:02:59;5.60;21.50
22364;DHT22;11349;53.412;-1.328;2024-03-23T05:05:25;5.70;1.00
22364;DHT22;11349;53.412;-1.328;2024-03-23T05:07:50;6.20;79.00
22364;DHT22;11349;53.412;-1.328;2024-03-23T05:10:16;6.50;1.00
22364;DHT22;11349;53.412;-1.328;2024-03-23T05:12:42;5.90;96.90
22364;DHT22;11349;53.412;-1.328;2024-03-23T05:15:07;5.70;99.90
22364;DHT22;11349;53.412;-1.328;2024-03-23T05:17:33;5.70;99.90
22364;DHT22;11349;53.412;-1.328;2024-03-23T05:20:00;5.50;1.00
22364;DHT22;11349;53.412;-1.328;2024-03-23T05:22:26;5.50;1.00
22364;DHT22;11349;53.412;-1.328;2024-03-23T05:24:53;5.40;99.90
22364;DHT22;11349;53.412;-1.328;2024-03-23T05:27:18;5.40;99.90
22364;DHT22;11349;53.412;-1.328;2024-03-23T05:29:44;5.30;1.00
22364;DHT22;11349;53.412;-1.328;2024-03-23T05:32:10;5.60;50.40
22364;DHT22;11349;53.412;-1.328;2024-03-23T05:34:36;5.60;99.90
22364;DHT22;11349;53.412;-1.328;2024-03-23T05:37:01;6.10;99.90
22364;DHT22;11349;53.412;-1.328;2024-03-23T05:39:27;5.80;1.00
22364;DHT22;11349;53.412;-1.328;2024-03-23T05:41:53;6.00;1.00
22364;DHT22;11349;53.412;-1.328;2024-03-23T05:44:19;6.20;1.00
22364;DHT22;11349;53.412;-1.328;2024-03-23T05:46:45;5.90;99.90
22364;DHT22;11349;53.412;-1.328;2024-03-23T05:49:15;5.70;1.00
22364;DHT22;11349;53.412;-1.328;2024-03-23T05:51:41;5.70;1.00
22364;DHT22;11349;53.412;-1.328;2024-03-23T05:54:06;5.90;99.90
22364;DHT22;11349;53.412;-1.328;2024-03-23T05:56:32;5.70;99.90
22364;DHT22;11349;53.412;-1.328;2024-03-23T05:58:58;5.60;1.00
22364;DHT22;11349;53.412;-1.328;2024-03-23T06:01:23;5.50;54.90
22364;DHT22;11349;53.412;-1.328;2024-03-23T06:03:49;5.50;99.90
22364;DHT22;11349;53.412;-1.328;2024-03-23T06:06:15;5.70;99.90
22364;DHT22;11349;53.412;-1.328;2024-03-23T06:08:40;5.70;1.00
22364;DHT22;11349;53.412;-1.328;2024-03-23T06:11:06;5.60;45.00
22364;DHT22;11349;53.412;-1.328;2024-03-23T06:13:33;5.60;55.90
22364;DHT22;11349;53.412;-1.328;2024-03-23T06:16:02;5.50;99.90
22364;DHT22;11349;53.412;-1.328;2024-03-23T06:18:28;5.80;96.00
22364;DHT22;11349;53.412;-1.328;2024-03-23T06:20:54;6.00;99.90
22364;DHT22;11349;53.412;-1.328;2024-03-23T06:23:20;6.00;99.90
22364;DHT22;11349;53.412;-1.328;2024-03-23T06:25:46;5.90;99.90
22364;DHT22;11349;53.412;-1.328;2024-03-23T06:28:12;5.70;1.00
22364;DHT22;11349;53.412;-1.328;2024-03-23T06:30:37;5.50;1.00
22364;DHT22;11349;53.412;-1.328;2024-03-23T06:33:03;5.70;99.90
22364;DHT22;11349;53.412;-1.328;2024-03-23T06:35:31;5.80;99.90
22364;DHT22;11349;53.412;-1.328;2024-03-23T06:37:57;5.60;99.90
22364;DHT22;11349;53.412;-1.328;2024-03-23T06:40:23;5.60;99.90
22364;DHT22;11349;53.412;-1.328;2024-03-23T06:42:49;5.60;1.00
22364;DHT22;11349;53.412;-1.328;2024-03-23T06:45:17;5.80;1.00
22364;DHT22;11349;53.412;-1.328;2024-03-23T06:47:48;6.30;1.00
22364;DHT22;11349;53.412;-1.328;2024-03-23T06:50:14;6.60;99.90
22364;DHT22;11349;53.412;-1.328;2024-03-23T06:52:40;6.70;99.90
22364;DHT22;11349;53.412;-1.328;2024-03-23T06:55:05;6.80;1.00
22364;DHT22;11349;53.412;-1.328;2024-03-23T06:57:31;6.80;1.00
22364;DHT22;11349;53.412;-1.328;2024-03-23T06:59:57;7.10;1.00
22364;DHT22;11349;53.412;-1.328;2024-03-23T07:02:23;7.20;1.00
22364;DHT22;11349;53.412;-1.328;2024-03-23T07:04:48;7.50;99.90
22364;DHT22;11349;53.412;-1.328;2024-03-23T07:07:14;7.90;99.90
22364;DHT22;11349;53.412;-1.328;2024-03-23T07:09:39;8.10;99.90
22364;DHT22;11349;53.412;-1.328;2024-03-23T07:12:05;8.50;99.90
22364;DHT22;11349;53.412;-1.328;2024-03-23T07:14:31;8.60;99.90
22364;DHT22;11349;53.412;-1.328;2024-03-23T07:16:57;8.90;1.00
22364;DHT22;11349;53.412;-1.328;2024-03-23T07:19:22;9.00;1.00
22364;DHT22;11349;53.412;-1.328;2024-03-23T07:21:50;8.70;99.90
22364;DHT22;11349;53.412;-1.328;2024-03-23T07:24:15;8.60;99.90
22364;DHT22;11349;53.412;-1.328;2024-03-23T07:26:41;8.40;1.00
22364;DHT22;11349;53.412;-1.328;2024-03-23T07:29:07;8.80;1.00
22364;DHT22;11349;53.412;-1.328;2024-03-23T07:31:33;9.40;1.00
22364;DHT22;11349;53.412;-1.328;2024-03-23T07:33:58;9.60;99.90
22364;DHT22;11349;53.412;-1.328;2024-03-23T07:36:24;9.80;1.00
22364;DHT22;11349;53.412;-1.328;2024-03-23T07:38:50;9.60;1.00
22364;DHT22;11349;53.412;-1.328;2024-03-23T07:41:17;9.40;1.00
22364;DHT22;11349;53.412;-1.328;2024-03-23T07:43:43;9.30;99.90
22364;DHT22;11349;53.412;-1.328;2024-03-23T07:46:09;9.20;99.90
22364;DHT22;11349;53.412;-1.328;2024-03-23T07:48:35;9.30;99.90
22364;DHT22;11349;53.412;-1.328;2024-03-23T07:51:08;9.30;1.00
22364;DHT22;11349;53.412;-1.328;2024-03-23T07:53:36;9.70;99.90
22364;DHT22;11349;53.412;-1.328;2024-03-23T07:56:07;10.10;1.00
22364;DHT22;11349;53.412;-1.328;2024-03-23T07:58:33;9.90;1.00
22364;DHT22;11349;53.412;-1.328;2024-03-23T08:01:08;9.90;1.00
22364;DHT22;11349;53.412;-1.328;2024-03-23T08:03:34;9.70;1.00
22364;DHT22;11349;53.412;-1.328;2024-03-23T08:06:26;9.20;99.90
22364;DHT22;11349;53.412;-1.328;2024-03-23T08:08:54;9.10;99.90
22364;DHT22;11349;53.412;-1.328;2024-03-23T08:11:29;9.30;99.90
22364;DHT22;11349;53.412;-1.328;2024-03-23T08:13:55;9.40;99.90
22364;DHT22;11349;53.412;-1.328;2024-03-23T08:16:21;9.50;1.00
22364;DHT22;11349;53.412;-1.328;2024-03-23T08:18:47;9.50;1.00
22364;DHT22;11349;53.412;-1.328;2024-03-23T08:21:13;10.00;99.90
22364;DHT22;11349;53.412;-1.328;2024-03-23T08:23:39;10.00;99.90
22364;DHT22;11349;53.412;-1.328;2024-03-23T08:26:12;10.50;1.00
22364;DHT22;11349;53.412;-1.328;2024-03-23T08:28:38;10.70;99.90
22364;DHT22;11349;53.412;-1.328;2024-03-23T08:31:06;10.60;99.90
22364;DHT22;11349;53.412;-1.328;2024-03-23T08:33:32;10.40;99.90
22364;DHT22;11349;53.412;-1.328;2024-03-23T08:36:03;10.00;99.90
22364;DHT22;11349;53.412;-1.328;2024-03-23T08:38:29;9.70;1.00
22364;DHT22;11349;53.412;-1.328;2024-03-23T08:41:08;9.90;1.00
22364;DHT22;11349;53.412;-1.328;2024-03-23T08:43:41;9.60;99.90
22364;DHT22;11349;53.412;-1.328;2024-03-23T08:48:35;9.40;99.90
22364;DHT22;11349;53.412;-1.328;2024-03-23T08:51:06;9.90;99.90
22364;DHT22;11349;53.412;-1.328;2024-03-23T08:53:32;9.50;16.80
22364;DHT22;11349;53.412;-1.328;2024-03-23T08:55:59;9.30;15.50
22364;DHT22;11349;53.412;-1.328;2024-03-23T08:58:26;9.20;99.90
22364;DHT22;11349;53.412;-1.328;2024-03-23T09:00:53;8.90;1.00
22364;DHT22;11349;53.412;-1.328;2024-03-23T09:03:25;8.90;1.00
22364;DHT22;11349;53.412;-1.328;2024-03-23T09:05:51;9.50;1.00
22364;DHT22;11349;53.412;-1.328;2024-03-23T09:08:18;9.70;99.90
22364;DHT22;11349;53.412;-1.328;2024-03-23T09:10:44;9.20;56.90
22364;DHT22;11349;53.412;-1.328;2024-03-23T09:13:10;9.00;99.90
22364;DHT22;11349;53.412;-1.328;2024-03-23T09:15:37;8.70;1.00
22364;DHT22;11349;53.412;-1.328;2024-03-23T09:18:04;8.60;99.90
22364;DHT22;11349;53.412;-1.328;2024-03-23T09:20:32;8.80;99.90
22364;DHT22;11349;53.412;-1.328;2024-03-23T09:22:58;9.30;99.90
22364;DHT22;11349;53.412;-1.328;2024-03-23T09:25:24;9.60;99.90
22364;DHT22;11349;53.412;-1.328;2024-03-23T09:27:50;9.80;1.00
22364;DHT22;11349;53.412;-1.328;2024-03-23T09:30:16;10.00;99.90
22364;DHT22;11349;53.412;-1.328;2024-03-23T09:32:44;10.60;99.90
22364;DHT22;11349;53.412;-1.328;2024-03-23T09:35:10;10.20;99.90
22364;DHT22;11349;53.412;-1.328;2024-03-23T09:37:36;10.40;99.90
22364;DHT22;11349;53.412;-1.328;2024-03-23T09:40:02;10.70;99.90
22364;DHT22;11349;53.412;-1.328;2024-03-23T09:42:30;10.20;99.90
22364;DHT22;11349;53.412;-1.328;2024-03-23T09:44:57;10.60;1.00
22364;DHT22;11349;53.412;-1.328;2024-03-23T09:47:24;10.00;1.00
22364;DHT22;11349;53.412;-1.328;2024-03-23T09:49:50;9.80;1.00
22364;DHT22;11349;53.412;-1.328;2024-03-23T09:52:16;9.70;99.90
22364;DHT22;11349;53.412;-1.328;2024-03-23T09:54:42;9.80;1.00
22364;DHT22;11349;53.412;-1.328;2024-03-23T09:57:08;9.90;99.90
22364;DHT22;11349;53.412;-1.328;2024-03-23T09:59:34;10.10;99.90
22364;DHT22;11349;53.412;-1.328;2024-03-23T10:02:03;9.70;99.90
22364;DHT22;11349;53.412;-1.328;2024-03-23T10:04:55;9.80;99.90
22364;DHT22;11349;53.412;-1.328;2024-03-23T10:07:22;10.10;99.90
22364;DHT22;11349;53.412;-1.328;2024-03-23T10:09:48;9.80;1.00
22364;DHT22;11349;53.412;-1.328;2024-03-23T10:12:17;9.60;99.90
22364;DHT22;11349;53.412;-1.328;2024-03-23T10:14:44;9.90;1.00
22364;DHT22;11349;53.412;-1.328;2024-03-23T10:17:18;10.10;99.90
22364;DHT22;11349;53.412;-1.328;2024-03-23T10:19:45;9.90;1.00
22364;DHT22;11349;53.412;-1.328;2024-03-23T10:22:17;9.80;22.20
22364;DHT22;11349;53.412;-1.328;2024-03-23T10:24:43;10.00;1.00
22364;DHT22;11349;53.412;-1.328;2024-03-23T10:27:09;9.90;99.90
22364;DHT22;11349;53.412;-1.328;2024-03-23T10:29:35;9.70;99.90
22364;DHT22;11349;53.412;-1.328;2024-03-23T10:32:11;9.80;99.90
22364;DHT22;11349;53.412;-1.328;2024-03-23T10:34:37;9.70;99.90
22364;DHT22;11349;53.412;-1.328;2024-03-23T10:37:03;9.50;99.90
22364;DHT22;11349;53.412;-1.328;2024-03-23T10:39:34;9.60;1.00
22364;DHT22;11349;53.412;-1.328;2024-03-23T10:42:05;9.40;1.00
22364;DHT22;11349;53.412;-1.328;2024-03-23T10:44:32;9.20;99.90
22364;DHT22;11349;53.412;-1.328;2024-03-23T10:47:02;8.70;99.90
22364;DHT22;11349;53.412;-1.328;2024-03-23T10:49:32;8.60;1.00
22364;DHT22;11349;53.412;-1.328;2024-03-23T10:51:59;8.40;99.90
22364;DHT22;11349;53.412;-1.328;2024-03-23T10:54:25;8.90;99.90
22364;DHT22;11349;53.412;-1.328;2024-03-23T10:59:27;8.40;99.90
22364;DHT22;11349;53.412;-1.328;2024-03-23T11:01:58;8.30;99.90
22364;DHT22;11349;53.412;-1.328;2024-03-23T11:06:57;8.10;1.00
22364;DHT22;11349;53.412;-1.328;2024-03-23T11:12:24;8.00;1.00
22364;DHT22;11349;53.412;-1.328;2024-03-23T11:15:11;8.00;99.90
22364;DHT22;11349;53.412;-1.328;2024-03-23T11:17:37;8.00;99.90
22364;DHT22;11349;53.412;-1.328;2024-03-23T11:20:05;8.40;1.00
22364;DHT22;11349;53.412;-1.328;2024-03-23T11:25:25;8.70;99.90
22364;DHT22;11349;53.412;-1.328;2024-03-23T11:27:52;9.30;99.90
22364;DHT22;11349;53.412;-1.328;2024-03-23T11:30:22;10.00;92.90
22364;DHT22;11349;53.412;-1.328;2024-03-23T11:32:53;9.90;1.00
22364;DHT22;11349;53.412;-1.328;2024-03-23T11:35:33;9.30;99.90
22364;DHT22;11349;53.412;-1.328;2024-03-23T11:40:30;8.90;99.90
22364;DHT22;11349;53.412;-1.328;2024-03-23T11:43:00;8.80;1.00
22364;DHT22;11349;53.412;-1.328;2024-03-23T11:45:26;8.80;99.90
22364;DHT22;11349;53.412;-1.328;2024-03-23T11:48:22;8.80;1.00
22364;DHT22;11349;53.412;-1.328;2024-03-23T11:50:56;9.10;32.80
22364;DHT22;11349;53.412;-1.328;2024-03-23T11:53:24;9.10;99.90
22364;DHT22;11349;53.412;-1.328;2024-03-23T11:55:55;9.20;99.90
22364;DHT22;11349;53.412;-1.328;2024-03-23T11:58:22;9.30;99.90
22364;DHT22;11349;53.412;-1.328;2024-03-23T12:00:59;9.40;99.90
22364;DHT22;11349;53.412;-1.328;2024-03-23T12:03:26;9.60;1.00
22364;DHT22;11349;53.412;-1.328;2024-03-23T12:05:55;9.50;99.90
22364;DHT22;11349;53.412;-1.328;2024-03-23T12:08:28;9.60;99.90
22364;DHT22;11349;53.412;-1.328;2024-03-23T12:11:13;9.80;99.90
22364;DHT22;11349;53.412;-1.328;2024-03-23T12:13:41;9.90;99.90
22364;DHT22;11349;53.412;-1.328;2024-03-23T12:16:13;9.80;96.10
22364;DHT22;11349;53.412;-1.328;2024-03-23T12:18:41;9.80;99.90
22364;DHT22;11349;53.412;-1.328;2024-03-23T12:21:07;9.90;1.00
22364;DHT22;11349;53.412;-1.328;2024-03-23T12:23:34;9.90;99.90
22364;DHT22;11349;53.412;-1.328;2024-03-23T12:26:00;9.90;99.90
22364;DHT22;11349;53.412;-1.328;2024-03-23T12:28:26;9.90;99.90
22364;DHT22;11349;53.412;-1.328;2024-03-23T12:30:52;10.30;99.90
22364;DHT22;11349;53.412;-1.328;2024-03-23T12:33:19;10.10;99.90
22364;DHT22;11349;53.412;-1.328;2024-03-23T12:35:45;9.90;92.60
22364;DHT22;11349;53.412;-1.328;2024-03-23T12:38:11;10.10;65.10
22364;DHT22;11349;53.412;-1.328;2024-03-23T12:40:36;9.90;35.30
22364;DHT22;11349;53.412;-1.328;2024-03-23T12:43:02;10.20;99.90
22364;DHT22;11349;53.412;-1.328;2024-03-23T12:45:28;10.10;99.90
22364;DHT22;11349;53.412;-1.328;2024-03-23T12:47:53;10.00;99.90
22364;DHT22;11349;53.412;-1.328;2024-03-23T12:50:19;10.10;99.90
22364;DHT22;11349;53.412;-1.328;2024-03-23T12:52:45;10.10;99.90
22364;DHT22;11349;53.412;-1.328;2024-03-23T12:55:11;10.10;99.90
22364;DHT22;11349;53.412;-1.328;2024-03-23T12:57:37;10.10;99.90
22364;DHT22;11349;53.412;-1.328;2024-03-23T13:00:03;9.90;99.90
22364;DHT22;11349;53.412;-1.328;2024-03-23T13:02:29;10.10;99.90
22364;DHT22;11349;53.412;-1.328;2024-03-23T13:04:55;10.60;1.00
22364;DHT22;11349;53.412;-1.328;2024-03-23T13:07:22;10.50;1.00
22364;DHT22;11349;53.412;-1.328;2024-03-23T13:09:52;10.40;1.00
22364;DHT22;11349;53.412;-1.328;2024-03-23T13:12:21;10.40;1.00
22364;DHT22;11349;53.412;-1.328;2024-03-23T13:14:47;10.40;99.90
22364;DHT22;11349;53.412;-1.328;2024-03-23T13:17:13;10.30;99.90
22364;DHT22;11349;53.412;-1.328;2024-03-23T13:19:38;10.30;99.90
22364;DHT22;11349;53.412;-1.328;2024-03-23T13:22:05;10.30;99.90
22364;DHT22;11349;53.412;-1.328;2024-03-23T13:24:31;10.30;1.00
22364;DHT22;11349;53.412;-1.328;2024-03-23T13:26:57;10.30;1.00
22364;DHT22;11349;53.412;-1.328;2024-03-23T13:29:24;10.30;1.00
22364;DHT22;11349;53.412;-1.328;2024-03-23T13:31:51;10.50;99.90
22364;DHT22;11349;53.412;-1.328;2024-03-23T13:34:18;10.30;1.00
22364;DHT22;11349;53.412;-1.328;2024-03-23T13:36:47;10.30;1.00
22364;DHT22;11349;53.412;-1.328;2024-03-23T13:39:14;10.20;1.00
22364;DHT22;11349;53.412;-1.328;2024-03-23T13:41:44;10.20;99.90
22364;DHT22;11349;53.412;-1.328;2024-03-23T13:44:13;10.20;99.90
22364;DHT22;11349;53.412;-1.328;2024-03-23T13:46:43;10.10;99.90
22364;DHT22;11349;53.412;-1.328;2024-03-23T13:51:52;10.40;99.90
22364;DHT22;11349;53.412;-1.328;2024-03-23T13:54:17;10.90;99.90
22364;DHT22;11349;53.412;-1.328;2024-03-23T13:56:43;10.60;99.90
22364;DHT22;11349;53.412;-1.328;2024-03-23T13:59:10;11.00;99.90
22364;DHT22;11349;53.412;-1.328;2024-03-23T14:01:35;10.80;1.00
22364;DHT22;11349;53.412;-1.328;2024-03-23T14:04:01;10.60;99.90
22364;DHT22;11349;53.412;-1.328;2024-03-23T14:06:27;10.90;99.90
22364;DHT22;11349;53.412;-1.328;2024-03-23T14:08:52;10.80;99.90
22364;DHT22;11349;53.412;-1.328;2024-03-23T14:11:19;10.70;99.90
22364;DHT22;11349;53.412;-1.328;2024-03-23T14:13:44;10.50;99.90
22364;DHT22;11349;53.412;-1.328;2024-03-23T14:16:10;10.40;99.90
22364;DHT22;11349;53.412;-1.328;2024-03-23T14:18:36;10.30;99.90
22364;DHT22;11349;53.412;-1.328;2024-03-23T14:21:02;10.30;99.90
22364;DHT22;11349;53.412;-1.328;2024-03-23T14:23:29;10.50;1.00
22364;DHT22;11349;53.412;-1.328;2024-03-23T14:25:56;10.80;1.00
22364;DHT22;11349;53.412;-1.328;2024-03-23T14:28:22;10.70;1.00
22364;DHT22;11349;53.412;-1.328;2024-03-23T14:30:49;11.00;99.90
22364;DHT22;11349;53.412;-1.328;2024-03-23T14:33:16;10.90;1.00
22364;DHT22;11349;53.412;-1.328;2024-03-23T14:35:42;10.70;99.90
22364;DHT22;11349;53.412;-1.328;2024-03-23T14:38:07;11.10;1.00
22364;DHT22;11349;53.412;-1.328;2024-03-23T14:40:33;10.90;99.90
22364;DHT22;11349;53.412;-1.328;2024-03-23T14:42:59;11.30;1.00
22364;DHT22;11349;53.412;-1.328;2024-03-23T14:45:25;11.00;1.00
22364;DHT22;11349;53.412;-1.328;2024-03-23T14:47:51;10.80;1.00
22364;DHT22;11349;53.412;-1.328;2024-03-23T14:50:17;11.30;99.90
22364;DHT22;11349;53.412;-1.328;2024-03-23T14:52:46;11.40;99.90
22364;DHT22;11349;53.412;-1.328;2024-03-23T14:55:12;11.00;99.90
22364;DHT22;11349;53.412;-1.328;2024-03-23T14:57:38;10.80;1.00
22364;DHT22;11349;53.412;-1.328;2024-03-23T15:00:07;10.80;1.00
22364;DHT22;11349;53.412;-1.328;2024-03-23T15:02:33;11.50;1.00
22364;DHT22;11349;53.412;-1.328;2024-03-23T15:05:00;11.20;1.00
22364;DHT22;11349;53.412;-1.328;2024-03-23T15:07:26;11.10;1.00
22364;DHT22;11349;53.412;-1.328;2024-03-23T15:09:52;11.60;1.00
22364;DHT22;11349;53.412;-1.328;2024-03-23T15:12:19;11.70;99.90
22364;DHT22;11349;53.412;-1.328;2024-03-23T15:14:45;11.20;1.00
22364;DHT22;11349;53.412;-1.328;2024-03-23T15:17:11;10.90;1.00
22364;DHT22;11349;53.412;-1.328;2024-03-23T15:19:37;10.80;1.00
22364;DHT22;11349;53.412;-1.328;2024-03-23T15:22:03;10.60;1.00
22364;DHT22;11349;53.412;-1.328;2024-03-23T15:24:29;10.70;1.00
22364;DHT22;11349;53.412;-1.328;2024-03-23T15:26:54;10.70;1.00
22364;DHT22;11349;53.412;-1.328;2024-03-23T15:29:23;10.60;1.00
22364;DHT22;11349;53.412;-1.328;2024-03-23T15:31:49;10.70;1.00
22364;DHT22;11349;53.412;-1.328;2024-03-23T15:34:18;10.60;1.00
22364;DHT22;11349;53.412;-1.328;2024-03-23T15:36:49;10.50;48.20
22364;DHT22;11349;53.412;-1.328;2024-03-23T15:39:17;10.30;80.20
22364;DHT22;11349;53.412;-1.328;2024-03-23T15:41:46;10.90;99.90
22364;DHT22;11349;53.412;-1.328;2024-03-23T15:44:12;10.70;1.00
22364;DHT22;11349;53.412;-1.328;2024-03-23T15:46:38;10.50;56.80
22364;DHT22;11349;53.412;-1.328;2024-03-23T15:49:03;10.30;99.90
22364;DHT22;11349;53.412;-1.328;2024-03-23T15:51:30;10.50;99.90
22364;DHT22;11349;53.412;-1.328;2024-03-23T15:54:01;10.40;99.90
22364;DHT22;11349;53.412;-1.328;2024-03-23T15:56:29;10.30;99.90
22364;DHT22;11349;53.412;-1.328;2024-03-23T15:58:54;10.50;1.00
22364;DHT22;11349;53.412;-1.328;2024-03-23T16:01:20;11.10;97.80
22364;DHT22;11349;53.412;-1.328;2024-03-23T16:03:47;10.50;90.90
22364;DHT22;11349;53.412;-1.328;2024-03-23T16:06:12;10.70;99.90
22364;DHT22;11349;53.412;-1.328;2024-03-23T16:08:38;10.50;99.90
22364;DHT22;11349;53.412;-1.328;2024-03-23T16:11:05;10.60;99.90
22364;DHT22;11349;53.412;-1.328;2024-03-23T16:13:35;10.40;99.90
22364;DHT22;11349;53.412;-1.328;2024-03-23T16:16:04;10.60;99.90
22364;DHT22;11349;53.412;-1.328;2024-03-23T16:18:36;10.50;99.90
22364;DHT22;11349;53.412;-1.328;2024-03-23T16:21:03;10.80;99.90
22364;DHT22;11349;53.412;-1.328;2024-03-23T16:23:31;11.20;99.90
22364;DHT22;11349;53.412;-1.328;2024-03-23T16:25:57;10.80;99.90
22364;DHT22;11349;53.412;-1.328;2024-03-23T16:28:27;11.10;99.90
22364;DHT22;11349;53.412;-1.328;2024-03-23T16:33:30;10.50;1.00
22364;DHT22;11349;53.412;-1.328;2024-03-23T16:36:10;10.40;1.00
22364;DHT22;11349;53.412;-1.328;2024-03-23T16:38:38;10.40;1.00
22364;DHT22;11349;53.412;-1.328;2024-03-23T16:41:06;10.70;99.90
22364;DHT22;11349;53.412;-1.328;2024-03-23T16:43:38;10.70;1.00
22364;DHT22;11349;53.412;-1.328;2024-03-23T16:46:23;10.50;99.90